createdAt,value
2023-01-21T00:00:13.017Z,-1.70
2023-01-21T00:02:39.925Z,-2.20
2023-01-21T00:05:06.895Z,-2.20
2023-01-21T00:07:33.812Z,-2.20
2023-01-21T00:10:00.694Z,-2.20
2023-01-21T00:12:27.496Z,-2.30
2023-01-21T00:14:54.398Z,-2.30
2023-01-21T00:17:21.242Z,-2.20
2023-01-21T00:19:48.151Z,-2.20
2023-01-21T00:22:14.971Z,-2.30
2023-01-21T00:24:41.858Z,-2.30
2023-01-21T00:27:11.514Z,-2.20
2023-01-21T00:29:38.336Z,-2.30
2023-01-21T00:32:05.850Z,-2.30
2023-01-21T00:34:33.112Z,-2.10
2023-01-21T00:36:59.945Z,-1.80
2023-01-21T00:39:26.763Z,-1.60
2023-01-21T00:41:53.625Z,-1.50
2023-01-21T00:44:20.487Z,-1.40
2023-01-21T00:46:47.293Z,-1.20
2023-01-21T00:49:14.095Z,-1.20
2023-01-21T00:51:41.013Z,-1.20
2023-01-21T00:54:07.941Z,-1.10
2023-01-21T00:56:34.805Z,-1.10
2023-01-21T00:59:02.012Z,-0.90
2023-01-21T01:01:30.528Z,-0.90
2023-01-21T01:03:57.413Z,-0.90
2023-01-21T01:06:24.615Z,-0.80
2023-01-21T01:08:52.109Z,-0.80
2023-01-21T01:11:21.589Z,-0.70
2023-01-21T01:13:48.496Z,-0.80
2023-01-21T01:16:16.209Z,-0.90
2023-01-21T01:18:43.825Z,-1.00
2023-01-21T01:21:12.141Z,-1.30
2023-01-21T01:23:39.108Z,-1.40
2023-01-21T01:26:07.011Z,-1.60
2023-01-21T01:28:34.053Z,-1.80
2023-01-21T01:31:01.810Z,-1.90
2023-01-21T01:33:28.843Z,-1.80
2023-01-21T01:35:55.945Z,-1.80
2023-01-21T01:38:23.095Z,-1.80
2023-01-21T01:40:51.120Z,-1.70
2023-01-21T01:43:28.187Z,-1.70
2023-01-21T01:45:55.161Z,-1.70
2023-01-21T01:48:27.571Z,-1.80
2023-01-21T01:50:57.365Z,-1.80
2023-01-21T01:53:25.184Z,-1.80
2023-01-21T01:55:52.751Z,-1.70
2023-01-21T01:58:21.074Z,-1.80
2023-01-21T02:00:48.031Z,-1.80
2023-01-21T02:03:35.619Z,-1.50
2023-01-21T02:06:02.885Z,-1.20
2023-01-21T02:08:29.933Z,-1.00
2023-01-21T02:10:56.779Z,-1.00
2023-01-21T02:13:28.368Z,-0.90
2023-01-21T02:16:07.323Z,-0.80
2023-01-21T02:18:34.071Z,-0.60
2023-01-21T02:21:16.277Z,-0.50
2023-01-21T02:24:09.875Z,-0.40
2023-01-21T02:26:50.975Z,-0.40
2023-01-21T02:29:36.428Z,-0.50
2023-01-21T02:32:15.146Z,-0.50
2023-01-21T02:34:52.490Z,-0.40
2023-01-21T02:37:25.449Z,-0.40
2023-01-21T02:39:52.378Z,-0.40
2023-01-21T02:42:29.953Z,-0.40
2023-01-21T02:44:56.795Z,-0.50
2023-01-21T02:47:31.451Z,-0.80
2023-01-21T02:50:07.031Z,-1.00
2023-01-21T02:52:34.139Z,-1.40
2023-01-21T02:55:02.015Z,-1.50
2023-01-21T02:57:32.114Z,-1.50
2023-01-21T03:00:00.465Z,-1.60
2023-01-21T03:02:42.276Z,-1.70
2023-01-21T03:05:17.276Z,-1.80
2023-01-21T03:07:48.698Z,-1.60
2023-01-21T03:10:15.833Z,-1.30
2023-01-21T03:12:55.149Z,-1.00
2023-01-21T03:15:43.272Z,-0.90
2023-01-21T03:18:15.559Z,-0.80
2023-01-21T03:20:44.086Z,-0.70
2023-01-21T03:23:12.965Z,-0.70
2023-01-21T03:25:40.298Z,-0.60
2023-01-21T03:28:11.930Z,-0.70
2023-01-21T03:30:41.349Z,-0.60
2023-01-21T03:33:09.334Z,-0.60
2023-01-21T03:35:38.487Z,-0.60
2023-01-21T03:38:13.735Z,-0.70
2023-01-21T03:40:43.327Z,-0.60
2023-01-21T03:43:10.353Z,-0.60
2023-01-21T03:45:44.721Z,-0.60
2023-01-21T03:48:25.012Z,-0.50
2023-01-21T03:50:54.889Z,-0.50
2023-01-21T03:53:21.863Z,-0.50
2023-01-21T03:55:53.225Z,-0.50
2023-01-21T03:58:20.844Z,-0.50
2023-01-21T04:00:49.569Z,-0.50
2023-01-21T04:03:20.562Z,-0.50
2023-01-21T04:05:49.269Z,-0.50
2023-01-21T04:08:22.543Z,-0.60
2023-01-21T04:10:57.325Z,-0.70
2023-01-21T04:13:28.010Z,-0.80
2023-01-21T04:15:58.175Z,-0.80
2023-01-21T04:18:30.490Z,-0.90
2023-01-21T04:20:57.755Z,-1.00
2023-01-21T04:23:28.067Z,-1.00
2023-01-21T04:25:54.980Z,-1.10
2023-01-21T04:28:21.970Z,-1.10
2023-01-21T04:30:49.212Z,-1.10
2023-01-21T04:33:16.266Z,-1.00
2023-01-21T04:35:43.123Z,-1.10
2023-01-21T04:38:09.953Z,-1.00
2023-01-21T04:40:36.970Z,-1.00
2023-01-21T04:43:03.818Z,-1.00
2023-01-21T04:45:30.638Z,-0.80
2023-01-21T04:47:57.579Z,-0.80
2023-01-21T04:50:24.620Z,-0.80
2023-01-21T04:52:51.446Z,-0.80
2023-01-21T04:55:18.419Z,-0.70
2023-01-21T04:57:45.276Z,-0.80
2023-01-21T05:00:12.709Z,-0.80
2023-01-21T05:02:40.101Z,-0.90
2023-01-21T05:05:07.259Z,-0.90
2023-01-21T05:07:34.383Z,-1.10
2023-01-21T05:10:01.342Z,-1.10
2023-01-21T05:12:28.238Z,-1.20
2023-01-21T05:14:55.459Z,-1.10
2023-01-21T05:17:25.087Z,-1.20
2023-01-21T05:19:52.097Z,-1.30
2023-01-21T05:22:18.999Z,-1.30
2023-01-21T05:24:46.315Z,-1.10
2023-01-21T05:27:13.230Z,-1.10
2023-01-21T05:29:40.396Z,-1.20
2023-01-21T05:32:07.513Z,-1.10
2023-01-21T05:34:34.352Z,-1.00
2023-01-21T05:37:01.177Z,-0.90
2023-01-21T05:39:27.928Z,-0.90
2023-01-21T05:41:55.123Z,-0.90
2023-01-21T05:44:21.878Z,-1.00
2023-01-21T05:46:51.011Z,-1.00
2023-01-21T05:49:21.408Z,-1.00
2023-01-21T05:51:48.382Z,-1.10
2023-01-21T05:54:23.476Z,-1.00
2023-01-21T05:56:50.489Z,-1.10
2023-01-21T05:59:17.372Z,-1.20
2023-01-21T06:01:44.187Z,-1.20
2023-01-21T06:04:12.923Z,-1.10
2023-01-21T06:06:40.812Z,-1.00
2023-01-21T06:09:07.812Z,-1.00
2023-01-21T06:11:34.942Z,-0.90
2023-01-21T06:14:01.779Z,-0.90
2023-01-21T06:16:28.547Z,-0.90
2023-01-21T06:18:55.398Z,-0.80
2023-01-21T06:21:22.261Z,-0.70
2023-01-21T06:23:49.141Z,-0.70
2023-01-21T06:26:16.023Z,-0.80
2023-01-21T06:31:25.580Z,-1.00
2023-01-21T06:33:52.598Z,-1.30
2023-01-21T06:36:19.457Z,-1.30
2023-01-21T06:38:46.598Z,-1.30
2023-01-21T06:41:15.822Z,-1.30
2023-01-21T06:43:42.958Z,-1.30
2023-01-21T06:46:10.896Z,-1.30
2023-01-21T06:48:37.830Z,-1.20
2023-01-21T06:51:05.023Z,-1.10
2023-01-21T06:53:32.028Z,-1.20
2023-01-21T06:55:58.935Z,-1.20
2023-01-21T06:58:25.956Z,-1.10
2023-01-21T07:00:55.693Z,-1.10
2023-01-21T07:03:22.623Z,-1.00
2023-01-21T07:05:51.172Z,-1.10
2023-01-21T07:08:18.082Z,-1.20
2023-01-21T07:10:47.601Z,-1.10
2023-01-21T07:13:14.712Z,-1.10
2023-01-21T07:15:41.731Z,-0.80
2023-01-21T07:18:08.712Z,-0.40
2023-01-21T07:20:36.746Z,0.00
2023-01-21T07:23:04.074Z,0.20
2023-01-21T07:25:32.601Z,0.40
2023-01-21T07:27:59.555Z,0.70
2023-01-21T07:30:26.446Z,0.80
2023-01-21T07:32:53.475Z,0.80
2023-01-21T07:35:20.495Z,0.70
2023-01-21T07:37:47.361Z,0.60
2023-01-21T07:40:14.326Z,0.60
2023-01-21T07:42:41.231Z,0.70
2023-01-21T07:45:08.364Z,0.80
2023-01-21T07:47:35.255Z,0.90
2023-01-21T07:50:05.129Z,0.90
2023-01-21T07:52:32.286Z,0.90
2023-01-21T07:54:59.222Z,0.80
2023-01-21T07:57:26.149Z,0.70
2023-01-21T07:59:53.142Z,0.60
2023-01-21T08:02:20.155Z,0.50
2023-01-21T08:04:50.082Z,0.40
2023-01-21T08:07:17.084Z,0.30
2023-01-21T08:09:43.985Z,0.20
2023-01-21T08:12:10.894Z,0.20
2023-01-21T08:14:38.818Z,0.20
2023-01-21T08:17:05.752Z,0.10
2023-01-21T08:19:32.643Z,0.20
2023-01-21T08:21:59.573Z,0.20
2023-01-21T08:24:26.502Z,0.10
2023-01-21T08:26:53.581Z,0.00
2023-01-21T08:29:20.430Z,-0.10
2023-01-21T08:31:47.408Z,-0.20
2023-01-21T08:34:15.468Z,-0.10
2023-01-21T08:36:42.566Z,0.00
2023-01-21T08:39:10.270Z,0.00
2023-01-21T08:41:37.174Z,0.10
2023-01-21T08:44:04.084Z,-0.10
2023-01-21T08:46:31.300Z,-0.10
2023-01-21T08:48:58.642Z,-0.10
2023-01-21T08:51:25.767Z,0.00
2023-01-21T08:53:52.617Z,0.00
2023-01-21T08:56:19.883Z,0.20
2023-01-21T08:58:46.783Z,0.30
2023-01-21T09:01:15.563Z,0.30
2023-01-21T09:03:43.284Z,0.40
2023-01-21T09:06:11.222Z,0.30
2023-01-21T09:08:38.174Z,0.30
2023-01-21T09:11:07.154Z,0.10
2023-01-21T09:13:37.260Z,-0.20
2023-01-21T09:16:08.306Z,-0.20
2023-01-21T09:18:36.030Z,-0.40
2023-01-21T09:21:04.108Z,-0.60
2023-01-21T09:23:34.156Z,-0.80
2023-01-21T09:26:03.437Z,-0.70
2023-01-21T09:28:30.689Z,-0.50
2023-01-21T09:30:59.329Z,-0.20
2023-01-21T09:33:27.871Z,-0.20
2023-01-21T09:35:55.560Z,0.00
2023-01-21T09:38:23.032Z,-0.10
2023-01-21T09:40:50.348Z,-0.20
2023-01-21T09:43:28.813Z,0.00
2023-01-21T09:45:57.877Z,0.00
2023-01-21T09:48:27.962Z,0.00
2023-01-21T09:50:56.264Z,-0.20
2023-01-21T09:53:27.410Z,-0.10
2023-01-21T09:55:57.396Z,-0.20
2023-01-21T09:58:40.931Z,-0.30
2023-01-21T10:01:17.382Z,-0.50
2023-01-21T10:03:53.585Z,-0.70
2023-01-21T10:06:23.707Z,-0.70
2023-01-21T10:08:53.642Z,-0.70
2023-01-21T10:11:30.091Z,-0.80
2023-01-21T10:14:15.963Z,-0.80
2023-01-21T10:16:52.053Z,-0.70
2023-01-21T10:19:21.949Z,-0.70
2023-01-21T10:21:53.306Z,-0.80
2023-01-21T10:24:22.748Z,-0.90
2023-01-21T10:26:51.259Z,-0.90
2023-01-21T10:29:19.706Z,-0.70
2023-01-21T10:32:07.398Z,-0.80
2023-01-21T10:34:38.136Z,-1.00
2023-01-21T10:37:05.092Z,-1.30
2023-01-21T10:39:55.248Z,-1.20
2023-01-21T10:42:25.235Z,-1.30
2023-01-21T10:45:16.557Z,-1.10
2023-01-21T10:48:02.043Z,-0.90
2023-01-21T10:50:29.195Z,-0.90
2023-01-21T10:53:00.462Z,-1.10
2023-01-21T10:55:27.474Z,-1.10
2023-01-21T10:58:02.395Z,-1.30
2023-01-21T11:00:31.344Z,-1.30
2023-01-21T11:03:02.587Z,-1.40
2023-01-21T11:05:30.742Z,-1.40
2023-01-21T11:07:57.910Z,-1.50
2023-01-21T11:10:26.084Z,-1.50
2023-01-21T11:12:56.684Z,-1.50
2023-01-21T11:15:24.388Z,-1.50
2023-01-21T11:17:56.780Z,-1.30
2023-01-21T11:20:39.981Z,-1.10
2023-01-21T11:23:07.749Z,-1.00
2023-01-21T11:25:38.386Z,-0.90
2023-01-21T11:28:05.637Z,-0.90
2023-01-21T11:30:49.532Z,-0.90
2023-01-21T11:33:17.754Z,-0.90
2023-01-21T11:35:44.888Z,-1.10
2023-01-21T11:38:30.193Z,-1.40
2023-01-21T11:41:04.786Z,-1.30
2023-01-21T11:43:36.715Z,-1.10
2023-01-21T11:46:25.909Z,-0.90
2023-01-21T11:49:15.833Z,-0.60
2023-01-21T11:51:44.803Z,-0.40
2023-01-21T11:54:14.803Z,-0.50
2023-01-21T11:56:45.616Z,-0.50
2023-01-21T11:59:18.860Z,-0.50
2023-01-21T12:02:06.969Z,-0.60
2023-01-21T12:04:34.940Z,-0.60
2023-01-21T12:07:02.511Z,-0.70
2023-01-21T12:09:29.544Z,-0.90
2023-01-21T12:12:15.092Z,-1.00
2023-01-21T12:14:53.664Z,-1.20
2023-01-21T12:17:29.796Z,-1.30
2023-01-21T12:19:56.720Z,-1.40
2023-01-21T12:22:23.859Z,-1.50
2023-01-21T12:24:50.770Z,-1.60
2023-01-21T12:27:23.855Z,-1.70
2023-01-21T12:30:08.493Z,-1.50
2023-01-21T12:33:01.764Z,-1.40
2023-01-21T12:35:44.447Z,-1.10
2023-01-21T12:38:14.273Z,-1.00
2023-01-21T12:40:44.120Z,-1.20
2023-01-21T12:43:18.442Z,-1.20
2023-01-21T12:46:06.349Z,-1.10
2023-01-21T12:48:47.022Z,-1.20
2023-01-21T12:51:20.391Z,-1.20
2023-01-21T12:53:52.332Z,-1.20
2023-01-21T12:56:33.992Z,-1.10
2023-01-21T12:59:00.988Z,-1.20
2023-01-21T13:01:43.218Z,-1.10
2023-01-21T13:04:29.066Z,-1.10
2023-01-21T13:07:08.786Z,-0.90
2023-01-21T13:09:40.938Z,-0.90
2023-01-21T13:12:21.927Z,-0.90
2023-01-21T13:14:53.083Z,-0.90
2023-01-21T13:17:20.200Z,-0.90
2023-01-21T13:19:47.350Z,-0.90
2023-01-21T13:22:32.688Z,-0.90
2023-01-21T13:24:59.755Z,-0.70
2023-01-21T13:27:33.200Z,-0.80
2023-01-21T13:30:09.412Z,-0.90
2023-01-21T13:32:42.618Z,-1.10
2023-01-21T13:35:09.669Z,-1.30
2023-01-21T13:37:41.074Z,-1.50
2023-01-21T13:40:17.419Z,-1.50
2023-01-21T13:42:53.761Z,-1.40
2023-01-21T13:45:24.951Z,-1.20
2023-01-21T13:48:12.650Z,-1.30
2023-01-21T13:50:58.191Z,-1.40
2023-01-21T13:53:44.010Z,-1.60
2023-01-21T13:56:11.092Z,-1.60
2023-01-21T13:58:41.179Z,-1.70
2023-01-21T14:01:11.187Z,-1.80
2023-01-21T14:03:56.776Z,-1.90
2023-01-21T14:06:26.141Z,-2.00
2023-01-21T14:09:04.857Z,-2.10
2023-01-21T14:11:36.949Z,-2.30
2023-01-21T14:14:03.824Z,-2.40
2023-01-21T14:16:33.814Z,-2.50
2023-01-21T14:19:19.520Z,-2.50
2023-01-21T14:21:49.468Z,-2.50
2023-01-21T14:24:16.438Z,-2.40
2023-01-21T14:26:48.644Z,-2.30
2023-01-21T14:29:23.241Z,-2.30
2023-01-21T14:32:04.793Z,-2.30
2023-01-21T14:34:33.703Z,-2.40
2023-01-21T14:37:11.964Z,-2.50
2023-01-21T14:39:48.463Z,-2.50
2023-01-21T14:42:25.283Z,-2.60
2023-01-21T14:44:52.788Z,-2.80
2023-01-21T14:47:23.305Z,-2.80
2023-01-21T14:49:52.003Z,-2.70
2023-01-21T14:52:29.223Z,-2.60
2023-01-21T14:54:56.689Z,-2.60
2023-01-21T14:57:28.776Z,-2.40
2023-01-21T15:00:03.319Z,-2.30
2023-01-21T15:02:35.075Z,-2.60
2023-01-21T15:05:04.664Z,-2.60
2023-01-21T15:07:35.357Z,-2.50
2023-01-21T15:10:07.963Z,-2.50
2023-01-21T15:12:35.559Z,-2.50
2023-01-21T15:15:04.399Z,-2.50
2023-01-21T15:17:47.260Z,-2.40
2023-01-21T15:20:33.061Z,-2.20
2023-01-21T15:23:23.512Z,-2.30
2023-01-21T15:26:12.361Z,-2.10
2023-01-21T15:28:44.881Z,-2.00
2023-01-21T15:31:21.192Z,-1.90
2023-01-21T15:33:49.755Z,-1.90
2023-01-21T15:36:24.985Z,-2.20
2023-01-21T15:39:12.575Z,-2.10
2023-01-21T15:41:48.783Z,-2.20
2023-01-21T15:44:18.756Z,-2.10
2023-01-21T15:47:08.761Z,-2.10
2023-01-21T15:49:48.002Z,-2.00
2023-01-21T15:52:15.123Z,-2.00
2023-01-21T15:54:48.058Z,-2.10
2023-01-21T15:57:22.475Z,-2.20
2023-01-21T16:00:08.348Z,-2.30
2023-01-21T16:02:55.450Z,-2.50
2023-01-21T16:05:27.071Z,-2.80
2023-01-21T16:08:07.995Z,-3.10
2023-01-21T16:10:35.041Z,-2.90
2023-01-21T16:13:02.125Z,-2.90
2023-01-21T16:15:47.818Z,-2.90
2023-01-21T16:18:29.102Z,-2.80
2023-01-21T16:20:57.451Z,-2.80
2023-01-21T16:23:25.433Z,-2.90
2023-01-21T16:25:53.428Z,-2.80
2023-01-21T16:28:20.834Z,-2.80
2023-01-21T16:30:59.322Z,-2.90
2023-01-21T16:33:26.530Z,-2.90
2023-01-21T16:35:56.370Z,-2.90
2023-01-21T16:38:27.504Z,-2.70
2023-01-21T16:41:06.766Z,-2.70
2023-01-21T16:43:57.100Z,-2.60
2023-01-21T16:46:27.230Z,-2.60
2023-01-21T16:48:58.074Z,-2.50
2023-01-21T16:51:28.888Z,-2.50
2023-01-21T16:54:14.793Z,-2.40
2023-01-21T16:56:47.117Z,-2.50
2023-01-21T16:59:37.080Z,-2.40
2023-01-21T17:02:04.478Z,-2.50
2023-01-21T17:04:31.535Z,-2.40
2023-01-21T17:06:59.053Z,-2.20
2023-01-21T17:09:34.389Z,-2.30
2023-01-21T17:12:08.890Z,-2.20
2023-01-21T17:14:36.908Z,-2.30
2023-01-21T17:17:05.480Z,-2.30
2023-01-21T17:19:43.117Z,-2.30
2023-01-21T17:22:13.251Z,-2.40
2023-01-21T17:24:44.233Z,-2.50
2023-01-21T17:27:14.589Z,-2.50
2023-01-21T17:29:42.432Z,-2.50
2023-01-21T17:32:27.370Z,-2.60
2023-01-21T17:35:09.579Z,-2.60
2023-01-21T17:37:52.449Z,-2.70
2023-01-21T17:40:29.992Z,-2.70
2023-01-21T17:42:57.929Z,-2.80
2023-01-21T17:45:33.156Z,-2.80
2023-01-21T17:48:09.475Z,-2.80
2023-01-21T17:50:36.685Z,-2.80
2023-01-21T17:53:05.221Z,-2.80
2023-01-21T17:55:33.761Z,-2.70
2023-01-21T17:58:04.762Z,-2.90
2023-01-21T18:00:31.721Z,-3.00
2023-01-21T18:02:59.242Z,-2.90
2023-01-21T18:05:26.751Z,-2.90
2023-01-21T18:07:53.727Z,-2.90
2023-01-21T18:10:24.404Z,-2.80
2023-01-21T18:12:51.819Z,-2.80
2023-01-21T18:15:20.687Z,-2.90
2023-01-21T18:17:49.803Z,-2.90
2023-01-21T18:20:27.248Z,-2.90
2023-01-21T18:22:54.919Z,-3.10
2023-01-21T18:25:22.906Z,-3.10
2023-01-21T18:28:09.998Z,-3.00
2023-01-21T18:30:36.985Z,-2.90
2023-01-21T18:33:03.910Z,-2.80
2023-01-21T18:35:31.035Z,-2.60
2023-01-21T18:37:58.054Z,-2.50
2023-01-21T18:40:25.180Z,-2.60
2023-01-21T18:42:55.425Z,-2.50
2023-01-21T18:45:25.433Z,-2.30
2023-01-21T18:47:53.045Z,-2.20
2023-01-21T18:50:21.560Z,-2.10
2023-01-21T18:52:48.843Z,-2.20
2023-01-21T18:55:17.039Z,-2.40
2023-01-21T18:57:49.121Z,-2.50
2023-01-21T19:00:23.446Z,-2.60
2023-01-21T19:02:51.027Z,-2.60
2023-01-21T19:05:18.170Z,-2.30
2023-01-21T19:07:45.213Z,-2.40
2023-01-21T19:10:13.914Z,-2.10
2023-01-21T19:12:40.973Z,-2.30
2023-01-21T19:15:10.568Z,-2.30
2023-01-21T19:17:38.479Z,-2.40
2023-01-21T19:20:05.788Z,-2.40
2023-01-21T19:22:32.696Z,-2.30
2023-01-21T19:24:59.603Z,-2.30
2023-01-21T19:27:30.738Z,-2.40
2023-01-21T19:29:57.647Z,-2.40
2023-01-21T19:32:24.600Z,-2.40
2023-01-21T19:34:51.536Z,-2.40
2023-01-21T19:37:20.021Z,-2.40
2023-01-21T19:39:47.297Z,-2.40
2023-01-21T19:42:15.257Z,-2.30
2023-01-21T19:44:42.917Z,-2.30
2023-01-21T19:47:29.226Z,-2.20
2023-01-21T19:49:56.172Z,-2.20
2023-01-21T19:52:23.073Z,-2.00
2023-01-21T19:54:50.009Z,-1.90
2023-01-21T19:57:17.295Z,-1.90
2023-01-21T19:59:44.883Z,-2.10
2023-01-21T20:02:12.303Z,-2.10
2023-01-21T20:04:39.761Z,-2.10
2023-01-21T20:07:07.332Z,-2.10
2023-01-21T20:09:34.271Z,-2.20
2023-01-21T20:12:03.441Z,-2.10
2023-01-21T20:14:32.998Z,-2.10
2023-01-21T20:16:59.936Z,-2.20
2023-01-21T20:19:27.716Z,-2.00
2023-01-21T20:22:02.193Z,-1.80
2023-01-21T20:24:31.103Z,-1.70
2023-01-21T20:26:59.657Z,-1.50
2023-01-21T20:29:27.179Z,-1.40
2023-01-21T20:31:54.630Z,-1.40
2023-01-21T20:34:25.084Z,-1.60
2023-01-21T20:36:52.716Z,-1.70
2023-01-21T20:39:19.810Z,-1.80
2023-01-21T20:41:46.743Z,-1.80
2023-01-21T20:44:13.899Z,-1.80
2023-01-21T20:46:40.902Z,-1.70
2023-01-21T20:49:10.496Z,-1.70
2023-01-21T20:51:37.424Z,-1.70
2023-01-21T20:54:04.360Z,-1.70
2023-01-21T20:56:31.908Z,-1.70
2023-01-21T20:58:59.268Z,-1.70
2023-01-21T21:01:26.887Z,-1.80
2023-01-21T21:03:53.886Z,-1.90
2023-01-21T21:06:22.693Z,-2.00
2023-01-21T21:08:50.041Z,-2.10
2023-01-21T21:11:17.607Z,-2.20
2023-01-21T21:13:47.135Z,-2.20
2023-01-21T21:16:20.217Z,-2.40
2023-01-21T21:18:47.416Z,-2.60
2023-01-21T21:21:14.911Z,-2.70
2023-01-21T21:23:41.946Z,-2.70
2023-01-21T21:26:26.018Z,-2.60
2023-01-21T21:28:57.837Z,-2.60
2023-01-21T21:31:26.052Z,-2.60
2023-01-21T21:33:53.028Z,-2.60
2023-01-21T21:36:20.840Z,-2.60
2023-01-21T21:38:48.432Z,-2.50
2023-01-21T21:41:41.105Z,-2.40
2023-01-21T21:44:09.102Z,-2.50
2023-01-21T21:46:57.859Z,-2.60
2023-01-21T21:49:24.817Z,-2.70
2023-01-21T21:51:51.883Z,-2.50
2023-01-21T21:54:18.949Z,-2.40
2023-01-21T21:56:46.382Z,-2.20
2023-01-21T21:59:13.865Z,-2.20
2023-01-21T22:01:41.732Z,-2.10
2023-01-21T22:04:08.941Z,-2.20
2023-01-21T22:06:36.181Z,-2.20
2023-01-21T22:09:03.703Z,-2.20
2023-01-21T22:11:30.686Z,-2.20
2023-01-21T22:13:58.476Z,-2.10
2023-01-21T22:16:26.779Z,-2.20
2023-01-21T22:18:54.404Z,-2.10
2023-01-21T22:21:22.463Z,-2.10
2023-01-21T22:23:49.985Z,-2.00
2023-01-21T22:26:18.820Z,-2.10
2023-01-21T22:28:46.217Z,-2.10
2023-01-21T22:31:14.374Z,-2.20
2023-01-21T22:33:41.520Z,-2.40
2023-01-21T22:36:15.142Z,-2.60
2023-01-21T22:38:42.685Z,-2.50
2023-01-21T22:41:10.681Z,-2.40
2023-01-21T22:43:42.216Z,-2.20
2023-01-21T22:46:10.237Z,-2.20
2023-01-21T22:48:37.289Z,-2.20
2023-01-21T22:51:04.448Z,-2.20
2023-01-21T22:53:33.361Z,-2.10
2023-01-21T22:56:01.625Z,-2.00
2023-01-21T22:58:29.380Z,-1.90
2023-01-21T23:00:56.534Z,-1.80
2023-01-21T23:03:24.072Z,-1.70
2023-01-21T23:05:51.395Z,-1.80
2023-01-21T23:08:19.055Z,-1.80
2023-01-21T23:10:46.932Z,-2.00
2023-01-21T23:13:14.511Z,-2.00
2023-01-21T23:15:42.413Z,-1.90
2023-01-21T23:18:09.547Z,-1.60
2023-01-21T23:20:36.956Z,-1.50
2023-01-21T23:23:03.939Z,-1.40
2023-01-21T23:25:30.958Z,-1.20
2023-01-21T23:27:57.839Z,-1.20
2023-01-21T23:30:24.775Z,-1.10
2023-01-21T23:32:52.391Z,-1.00
2023-01-21T23:35:19.644Z,-1.10
2023-01-21T23:37:46.705Z,-1.10
2023-01-21T23:40:13.924Z,-1.00
2023-01-21T23:42:41.114Z,-0.90
2023-01-21T23:45:08.334Z,-0.90
2023-01-21T23:47:35.577Z,-0.90
2023-01-21T23:50:02.533Z,-0.80
2023-01-21T23:52:30.266Z,-0.80
2023-01-21T23:54:57.214Z,-0.80
2023-01-21T23:57:24.145Z,-0.90
2023-01-21T23:59:51.207Z,-0.90
